Time;durP1;ratioP1;P1;durP2;ratioP2;P2;SDS_P1;SDS_P2;PMS_P1;PMS_P2;Temp;Humidity;BMP_temperature;BMP_pressure;BME280_temperature;BME280_humidity;BME280_pressure;Samples;Min_cycle;Max_cycle;Signal;HPM_P1;HPM_P2
2022/02/20 00:00:20;;;;;;;2.23;1.57;;;3.70;52.40;;;;;;5018948;28;20633;-58
2022/02/20 00:02:45;;;;;;;4.77;1.93;;;3.70;52.40;;;;;;5023050;28;20177;-58
2022/02/20 00:05:11;;;;;;;3.77;2.20;;;3.70;52.20;;;;;;4996210;28;20249;-58
2022/02/20 00:07:37;;;;;;;14.70;2.23;;;3.80;52.30;;;;;;5019089;28;20226;-58
2022/02/20 00:10:03;;;;;;;10.83;2.97;;;3.80;52.10;;;;;;5014073;28;20279;-60
2022/02/20 00:12:29;;;;;;;5.60;1.67;;;3.80;52.10;;;;;;5000435;28;20172;-58
2022/02/20 00:14:54;;;;;;;4.60;1.73;;;3.80;52.10;;;;;;5020815;28;20435;-58
2022/02/20 00:17:20;;;;;;;5.47;1.80;;;3.80;52.10;;;;;;5025309;28;20178;-58
2022/02/20 00:19:47;;;;;;;4.10;1.70;;;3.80;52.20;;;;;;5004172;28;20634;-58
2022/02/20 00:22:13;;;;;;;4.17;1.70;;;3.80;52.30;;;;;;5006727;28;20246;-58
2022/02/20 00:24:38;;;;;;;3.27;1.73;;;3.80;52.70;;;;;;5018590;28;20907;-58
2022/02/20 00:27:04;;;;;;;4.87;1.87;;;3.80;52.80;;;;;;5010679;28;20525;-58
2022/02/20 00:29:30;;;;;;;4.30;2.03;;;3.90;53.00;;;;;;5015936;28;20176;-58
2022/02/20 00:31:55;;;;;;;5.57;2.27;;;3.90;53.30;;;;;;5021679;28;20298;-58
2022/02/20 00:34:21;;;;;;;12.43;1.70;;;3.90;53.50;;;;;;5026318;28;20399;-58
2022/02/20 00:36:46;;;;;;;4.70;1.70;;;3.90;54.00;;;;;;5025331;28;20194;-58
2022/02/20 00:39:12;;;;;;;5.93;1.70;;;4.00;54.50;;;;;;5020589;28;20204;-59
2022/02/20 00:41:38;;;;;;;5.70;1.40;;;3.90;54.80;;;;;;5015562;28;20262;-58
2022/02/20 00:44:03;;;;;;;8.70;2.30;;;3.90;55.20;;;;;;5012130;28;20634;-58
2022/02/20 00:46:29;;;;;;;4.50;1.67;;;3.90;55.60;;;;;;5008856;28;20250;-58
2022/02/20 00:48:55;;;;;;;7.47;1.63;;;3.90;56.30;;;;;;5016524;28;20421;-58
2022/02/20 00:51:20;;;;;;;2.97;1.63;;;3.90;56.90;;;;;;5016918;28;20173;-58
2022/02/20 00:53:46;;;;;;;2.63;1.60;;;3.90;57.30;;;;;;5008506;28;20191;-58
2022/02/20 00:56:11;;;;;;;4.03;1.73;;;3.80;57.60;;;;;;5010409;28;20231;-58
2022/02/20 00:58:37;;;;;;;8.23;1.60;;;3.80;58.10;;;;;;5016964;28;20204;-58
2022/02/20 01:01:04;;;;;;;5.57;1.93;;;3.80;58.50;;;;;;5010537;28;20255;-58
2022/02/20 01:03:30;;;;;;;6.53;2.00;;;3.70;59.10;;;;;;5010422;28;20242;-58
2022/02/20 01:05:55;;;;;;;5.60;1.80;;;3.70;59.20;;;;;;5017808;28;20494;-58
2022/02/20 01:08:21;;;;;;;2.03;1.80;;;3.70;59.40;;;;;;4998599;28;20436;-60
2022/02/20 01:10:47;;;;;;;2.70;1.70;;;3.70;59.60;;;;;;5015496;28;20552;-60
2022/02/20 01:13:13;;;;;;;2.37;1.60;;;3.70;59.80;;;;;;5025466;28;20178;-58
2022/02/20 01:15:39;;;;;;;5.03;1.70;;;3.70;59.90;;;;;;5009484;28;20227;-58
2022/02/20 01:18:05;;;;;;;8.73;2.20;;;3.70;60.00;;;;;;5005697;28;20474;-57
2022/02/20 01:20:31;;;;;;;4.13;1.80;;;3.70;60.10;;;;;;5010981;28;20466;-58
2022/02/20 01:22:57;;;;;;;7.90;1.70;;;3.70;60.10;;;;;;4993715;28;20451;-58
2022/02/20 01:25:23;;;;;;;4.67;2.57;;;3.70;60.20;;;;;;5013468;28;20625;-58
2022/02/20 01:27:48;;;;;;;8.20;2.20;;;3.70;60.20;;;;;;5017891;28;20172;-58
2022/02/20 01:30:14;;;;;;;8.13;1.83;;;3.70;60.30;;;;;;5011818;28;20179;-58
2022/02/20 01:32:39;;;;;;;2.77;1.57;;;3.70;60.20;;;;;;5020664;28;20202;-58
2022/02/20 01:35:06;;;;;;;6.10;1.60;;;3.70;60.50;;;;;;5007148;28;20205;-58
2022/02/20 01:37:32;;;;;;;6.30;1.77;;;3.70;60.50;;;;;;4989865;28;20400;-58
2022/02/20 01:39:57;;;;;;;10.37;1.90;;;3.70;60.40;;;;;;5008845;28;20761;-58
2022/02/20 01:42:23;;;;;;;4.77;1.63;;;3.70;60.30;;;;;;5025942;28;20624;-58
2022/02/20 01:44:49;;;;;;;6.60;1.63;;;3.70;60.60;;;;;;5024313;28;20676;-58
2022/02/20 01:47:15;;;;;;;6.43;1.87;;;3.70;60.30;;;;;;5007781;28;20455;-58
2022/02/20 01:49:42;;;;;;;10.13;1.80;;;3.70;60.00;;;;;;5008440;28;20206;-58
2022/02/20 01:52:08;;;;;;;11.60;2.17;;;3.80;59.90;;;;;;5009595;28;20435;-58
2022/02/20 01:54:34;;;;;;;5.63;1.50;;;3.80;59.80;;;;;;5004000;28;20460;-58
2022/02/20 01:57:00;;;;;;;5.70;1.73;;;3.80;59.90;;;;;;5015047;28;20188;-58
2022/02/20 01:59:25;;;;;;;3.30;1.97;;;3.80;59.90;;;;;;5015359;28;20184;-58
2022/02/20 02:01:53;;;;;;;4.53;2.20;;;3.80;60.10;;;;;;5017731;28;20830;-58
2022/02/20 02:04:20;;;;;;;12.37;2.70;;;3.80;60.20;;;;;;5015808;28;20571;-58
2022/02/20 02:06:47;;;;;;;4.83;1.63;;;3.80;60.30;;;;;;5019164;28;20462;-58
2022/02/20 02:09:14;;;;;;;3.53;1.90;;;3.80;60.30;;;;;;5006177;28;20457;-58
2022/02/20 02:11:41;;;;;;;4.67;2.27;;;3.80;60.30;;;;;;5016114;28;20716;-57
2022/02/20 02:14:07;;;;;;;7.33;2.10;;;3.90;60.40;;;;;;5022790;28;20438;-59
2022/02/20 02:16:32;;;;;;;5.20;1.50;;;3.80;60.50;;;;;;5027995;28;20445;-59
2022/02/20 02:18:58;;;;;;;6.07;1.60;;;3.90;60.60;;;;;;5018563;28;20438;-58
2022/02/20 02:21:24;;;;;;;5.50;2.00;;;3.90;60.50;;;;;;5018597;28;20276;-59
2022/02/20 02:23:49;;;;;;;3.80;1.60;;;3.90;60.60;;;;;;5022758;28;20570;-58
2022/02/20 02:26:16;;;;;;;5.40;1.63;;;3.90;60.50;;;;;;5012072;28;20216;-59
2022/02/20 02:28:42;;;;;;;6.80;1.70;;;3.90;60.30;;;;;;5002101;28;20700;-58
2022/02/20 02:31:09;;;;;;;5.07;1.57;;;3.90;60.40;;;;;;5025815;28;20486;-61
2022/02/20 02:33:36;;;;;;;3.60;1.43;;;3.90;60.60;;;;;;5018966;28;20439;-58
2022/02/20 02:36:05;;;;;;;8.53;2.07;;;3.90;60.80;;;;;;5005850;28;22816;-59
2022/02/20 02:38:30;;;;;;;3.97;3.00;;;3.90;61.00;;;;;;5011158;28;20435;-58
2022/02/20 02:41:04;;;;;;;3.77;1.93;;;3.90;61.10;;;;;;5017659;28;20552;-58
2022/02/20 02:43:30;;;;;;;6.27;2.60;;;4.00;61.20;;;;;;4997276;28;20188;-60
2022/02/20 02:45:56;;;;;;;6.17;1.80;;;4.00;61.30;;;;;;5043124;22;20485;-60
2022/02/20 02:48:22;;;;;;;6.93;1.80;;;4.00;61.60;;;;;;5028534;28;20798;-60
2022/02/20 02:50:48;;;;;;;9.20;2.00;;;4.00;62.00;;;;;;5028971;28;20420;-58
2022/02/20 02:53:14;;;;;;;3.70;2.03;;;4.00;62.40;;;;;;5022548;28;20431;-56
2022/02/20 02:55:51;;;;;;;2.70;1.57;;;4.00;62.70;;;;;;5015288;28;20892;-59
2022/02/20 02:58:22;;;;;;;6.33;2.17;;;4.00;63.30;;;;;;5020750;28;20423;-57
2022/02/20 03:00:48;;;;;;;6.13;1.60;;;4.00;63.80;;;;;;5006791;28;20437;-59
2022/02/20 03:03:14;;;;;;;6.10;1.73;;;4.00;64.00;;;;;;5028603;28;20418;-57
2022/02/20 03:05:40;;;;;;;5.20;1.80;;;4.00;64.60;;;;;;5015882;28;20465;-59
2022/02/20 03:08:06;;;;;;;1.87;1.37;;;4.00;65.00;;;;;;5011749;28;20637;-59
2022/02/20 03:10:32;;;;;;;2.90;1.30;;;4.00;65.60;;;;;;5019889;28;20969;-58
2022/02/20 03:12:57;;;;;;;4.23;1.83;;;4.00;66.00;;;;;;5026854;28;20184;-58
2022/02/20 03:15:23;;;;;;;3.73;1.77;;;4.00;66.40;;;;;;5020661;28;20458;-60
2022/02/20 03:17:49;;;;;;;5.03;1.70;;;4.00;67.00;;;;;;5031628;28;20609;-61
2022/02/20 03:20:14;;;;;;;9.07;1.80;;;4.00;67.60;;;;;;5033544;28;20188;-60
2022/02/20 03:22:40;;;;;;;2.30;1.60;;;3.90;68.20;;;;;;5043552;28;20253;-62
2022/02/20 03:25:06;;;;;;;4.00;1.47;;;3.90;68.90;;;;;;5025831;28;20205;-60
2022/02/20 03:27:33;;;;;;;9.03;1.93;;;3.90;69.50;;;;;;5029785;28;20192;-59
2022/02/20 03:29:58;;;;;;;3.50;1.87;;;3.90;70.20;;;;;;5017896;28;20436;-59
2022/02/20 03:32:24;;;;;;;2.50;1.50;;;3.90;70.50;;;;;;5021122;28;20433;-59
2022/02/20 03:34:50;;;;;;;2.63;1.60;;;3.90;71.20;;;;;;5025408;28;20223;-59
2022/02/20 03:37:15;;;;;;;5.60;2.00;;;3.90;71.70;;;;;;5035987;28;20191;-58
2022/02/20 03:39:41;;;;;;;3.43;2.03;;;3.90;72.20;;;;;;5023072;28;20272;-57
2022/02/20 03:42:07;;;;;;;4.87;1.60;;;3.90;73.30;;;;;;5030504;28;20182;-57
2022/02/20 03:44:32;;;;;;;3.70;1.60;;;3.90;74.00;;;;;;5021649;28;20250;-58
2022/02/20 03:46:58;;;;;;;10.23;1.60;;;3.90;74.50;;;;;;5011025;28;20843;-61
2022/02/20 03:49:24;;;;;;;7.47;1.50;;;3.90;74.80;;;;;;5007302;28;20550;-56
2022/02/20 03:51:49;;;;;;;6.87;1.67;;;3.90;75.30;;;;;;5009467;28;20275;-60
2022/02/20 03:54:15;;;;;;;8.33;1.77;;;3.90;76.20;;;;;;5009877;28;20242;-58
2022/02/20 03:56:40;;;;;;;6.53;1.53;;;3.90;76.50;;;;;;5014212;28;20685;-59
2022/02/20 03:59:06;;;;;;;4.93;1.63;;;4.00;76.90;;;;;;5008809;28;20182;-58
2022/02/20 04:01:32;;;;;;;2.60;1.50;;;3.90;77.60;;;;;;5017625;28;20524;-59
2022/02/20 04:03:57;;;;;;;4.30;1.90;;;3.90;78.20;;;;;;5009231;28;20676;-60
2022/02/20 04:06:23;;;;;;;4.60;1.60;;;3.90;79.00;;;;;;5003860;28;20647;-57
2022/02/20 04:08:49;;;;;;;6.17;1.70;;;3.90;78.70;;;;;;5000895;28;20173;-59
2022/02/20 04:11:14;;;;;;;2.17;1.40;;;4.00;79.10;;;;;;5020647;28;20780;-58
2022/02/20 04:13:40;;;;;;;4.70;1.87;;;4.00;79.20;;;;;;5010468;28;20172;-60
2022/02/20 04:16:06;;;;;;;4.97;1.60;;;4.00;79.10;;;;;;5009225;28;20212;-60
2022/02/20 04:18:31;;;;;;;3.57;1.40;;;4.00;79.00;;;;;;5018500;28;20203;-61
2022/02/20 04:20:57;;;;;;;4.87;1.70;;;4.00;79.50;;;;;;5024988;28;20188;-59
2022/02/20 04:23:24;;;;;;;2.80;1.40;;;4.00;80.20;;;;;;5017731;28;20530;-60
2022/02/20 04:25:49;;;;;;;3.23;1.30;;;4.10;80.70;;;;;;5006012;28;20615;-57
2022/02/20 04:28:15;;;;;;;2.30;1.30;;;4.10;82.70;;;;;;5013794;28;20423;-60
2022/02/20 04:30:40;;;;;;;3.47;1.50;;;4.10;82.60;;;;;;5020012;28;20171;-60
2022/02/20 04:33:06;;;;;;;3.43;1.37;;;4.00;83.50;;;;;;5013542;28;20191;-60
2022/02/20 04:35:32;;;;;;;1.80;1.20;;;4.00;84.40;;;;;;5010270;28;20681;-61
2022/02/20 04:37:58;;;;;;;2.93;1.83;;;4.10;84.50;;;;;;5019850;28;20248;-61
2022/02/20 04:40:24;;;;;;;4.10;1.77;;;4.10;84.60;;;;;;5021204;28;20547;-60
2022/02/20 04:42:51;;;;;;;3.37;1.60;;;4.10;84.30;;;;;;5007437;28;20463;-58
2022/02/20 04:45:20;;;;;;;2.07;1.20;;;4.10;83.90;;;;;;5010038;28;20223;-58
2022/02/20 04:47:45;;;;;;;1.40;1.27;;;4.10;83.60;;;;;;5010992;28;20802;-59
2022/02/20 04:50:11;;;;;;;4.67;1.33;;;4.10;83.30;;;;;;5012948;28;20466;-60
2022/02/20 04:52:37;;;;;;;3.83;1.50;;;4.10;83.80;;;;;;4989705;28;20189;-59
2022/02/20 04:55:03;;;;;;;1.80;1.50;;;4.10;83.80;;;;;;5023591;28;20275;-60
2022/02/20 04:57:37;;;;;;;3.10;1.43;;;4.10;83.90;;;;;;5023897;28;20233;-60
2022/02/20 05:00:08;;;;;;;2.60;1.10;;;4.10;84.30;;;;;;5012318;28;20533;-60
2022/02/20 05:02:34;;;;;;;4.00;2.00;;;4.10;84.80;;;;;;5013022;28;20422;-60
2022/02/20 05:04:59;;;;;;;2.50;1.37;;;4.10;85.20;;;;;;5008259;28;20442;-59
2022/02/20 05:07:25;;;;;;;1.83;1.57;;;4.10;85.00;;;;;;5027880;28;20323;-63
2022/02/20 05:09:50;;;;;;;4.23;1.43;;;4.10;84.90;;;;;;5036989;28;20196;-62
2022/02/20 05:12:16;;;;;;;1.73;1.33;;;4.10;85.80;;;;;;5023569;28;20240;-60
2022/02/20 05:14:42;;;;;;;6.37;1.40;;;4.10;86.10;;;;;;5018514;28;20195;-60
2022/02/20 05:17:09;;;;;;;3.23;1.23;;;4.00;87.30;;;;;;5007254;28;20185;-60
2022/02/20 05:19:35;;;;;;;6.23;1.60;;;4.00;88.10;;;;;;5013252;28;20196;-61
2022/02/20 05:22:00;;;;;;;2.70;1.40;;;4.00;89.40;;;;;;5027476;28;20414;-59
2022/02/20 05:24:26;;;;;;;1.97;1.70;;;4.00;90.00;;;;;;5026626;28;20199;-58
2022/02/20 05:26:52;;;;;;;2.73;1.13;;;4.00;90.10;;;;;;5019602;28;20207;-59
2022/02/20 05:29:17;;;;;;;3.03;1.50;;;4.00;90.10;;;;;;5013732;28;20204;-60
2022/02/20 05:31:43;;;;;;;7.17;1.50;;;4.00;90.20;;;;;;5026662;28;20193;-60
2022/02/20 05:34:08;;;;;;;2.20;1.30;;;4.00;90.40;;;;;;5012512;28;20169;-57
2022/02/20 05:36:34;;;;;;;11.97;1.87;;;4.00;90.70;;;;;;5025676;28;20203;-60
2022/02/20 05:39:00;;;;;;;1.63;1.53;;;4.00;91.00;;;;;;5022622;28;20199;-59
2022/02/20 05:41:25;;;;;;;2.87;1.20;;;4.00;91.50;;;;;;5017723;28;20171;-60
2022/02/20 05:43:51;;;;;;;3.77;1.80;;;3.90;91.90;;;;;;5017761;28;20176;-58
2022/02/20 05:46:16;;;;;;;2.90;1.87;;;3.90;92.10;;;;;;5010360;28;20693;-60
2022/02/20 05:48:42;;;;;;;2.37;1.60;;;3.90;92.70;;;;;;5012099;28;20187;-60
2022/02/20 05:51:08;;;;;;;4.77;2.03;;;3.90;93.60;;;;;;5014366;28;20385;-59
2022/02/20 05:53:34;;;;;;;2.13;1.83;;;3.80;94.10;;;;;;5009908;28;20604;-60
2022/02/20 05:55:59;;;;;;;3.93;1.73;;;3.80;94.60;;;;;;4995080;28;20253;-60
2022/02/20 05:58:25;;;;;;;5.27;1.60;;;3.80;95.30;;;;;;5013676;28;20280;-60
2022/02/20 06:00:50;;;;;;;6.13;1.70;;;3.80;95.60;;;;;;5010989;28;20192;-59
2022/02/20 06:03:16;;;;;;;3.50;1.43;;;3.80;95.90;;;;;;5020266;28;20194;-60
2022/02/20 06:05:42;;;;;;;4.50;1.50;;;3.80;96.10;;;;;;5011218;28;20207;-57
2022/02/20 06:08:09;;;;;;;2.77;1.27;;;3.80;96.20;;;;;;5002381;28;20646;-60
2022/02/20 06:10:36;;;;;;;2.03;1.73;;;3.80;96.40;;;;;;5014785;28;20855;-59
2022/02/20 06:13:03;;;;;;;8.30;1.83;;;3.80;96.70;;;;;;5008397;28;20431;-60
2022/02/20 06:15:30;;;;;;;2.13;1.60;;;3.80;97.50;;;;;;5006607;28;20451;-60
2022/02/20 06:17:56;;;;;;;6.23;1.67;;;3.80;97.90;;;;;;5025736;28;20434;-60
2022/02/20 06:20:21;;;;;;;3.10;1.70;;;3.80;98.50;;;;;;4995731;28;20812;-61
2022/02/20 06:22:47;;;;;;;2.87;1.70;;;3.70;99.20;;;;;;5012632;28;20455;-59
2022/02/20 06:25:13;;;;;;;4.50;1.70;;;3.70;99.40;;;;;;5013872;28;20688;-60
2022/02/20 06:27:39;;;;;;;4.63;1.47;;;3.70;99.90;;;;;;5025465;28;20183;-59
2022/02/20 06:30:05;;;;;;;3.13;1.77;;;3.70;99.90;;;;;;5000529;28;20578;-60
2022/02/20 06:32:31;;;;;;;3.00;1.60;;;3.70;99.90;;;;;;5022659;28;20183;-59
2022/02/20 06:34:57;;;;;;;2.60;1.47;;;3.70;99.90;;;;;;5016058;28;21013;-58
2022/02/20 06:37:22;;;;;;;2.00;1.23;;;3.70;99.90;;;;;;5016541;28;20176;-59
2022/02/20 06:39:48;;;;;;;3.10;1.37;;;3.70;99.90;;;;;;5024560;28;20246;-60
2022/02/20 06:42:15;;;;;;;2.60;1.33;;;3.70;99.90;;;;;;5010308;28;20264;-59
2022/02/20 06:44:41;;;;;;;2.93;1.40;;;3.70;99.90;;;;;;5007011;28;20223;-60
2022/02/20 06:47:07;;;;;;;3.90;1.57;;;3.70;99.90;;;;;;5006664;28;20463;-60
2022/02/20 06:49:33;;;;;;;6.50;2.47;;;3.70;99.90;;;;;;5007258;28;20427;-57
2022/02/20 06:51:59;;;;;;;1.80;1.70;;;3.70;99.90;;;;;;5024057;28;20483;-62
2022/02/20 06:54:28;;;;;;;5.70;1.60;;;3.80;99.90;;;;;;5014351;28;20439;-62
2022/02/20 06:56:56;;;;;;;2.63;1.40;;;3.80;99.90;;;;;;5035083;28;20179;-62
2022/02/20 06:59:22;;;;;;;1.97;1.50;;;3.80;99.90;;;;;;5015976;28;21152;-60
2022/02/20 07:01:48;;;;;;;5.40;1.87;;;3.80;99.90;;;;;;5007765;28;20427;-59
2022/02/20 07:04:15;;;;;;;2.67;1.63;;;3.80;99.90;;;;;;5010464;28;20446;-59
2022/02/20 07:06:42;;;;;;;2.70;1.90;;;3.80;99.90;;;;;;5008611;28;20283;-58
2022/02/20 07:09:09;;;;;;;5.40;1.87;;;3.90;99.90;;;;;;5013067;28;20420;-60
2022/02/20 07:11:36;;;;;;;3.13;1.73;;;3.90;99.90;;;;;;5035805;28;20433;-60
2022/02/20 07:14:03;;;;;;;3.20;1.60;;;3.90;99.90;;;;;;5031177;28;20454;-60
2022/02/20 07:16:29;;;;;;;3.10;1.57;;;3.90;99.90;;;;;;5028317;28;20437;-60
2022/02/20 07:18:55;;;;;;;2.20;1.50;;;3.90;99.90;;;;;;5017766;28;20896;-58
2022/02/20 07:21:21;;;;;;;2.80;1.80;;;3.90;99.90;;;;;;5007161;28;20641;-59
2022/02/20 07:23:47;;;;;;;3.97;1.90;;;3.90;99.90;;;;;;5009336;28;20467;-58
2022/02/20 07:26:13;;;;;;;6.10;2.07;;;3.90;99.90;;;;;;5009316;28;20458;-59
2022/02/20 07:28:38;;;;;;;3.47;1.80;;;4.00;99.90;;;;;;5010538;28;20760;-58
2022/02/20 07:31:04;;;;;;;4.23;1.97;;;4.00;99.90;;;;;;5008581;28;20649;-60
2022/02/20 07:33:30;;;;;;;2.63;2.30;;;4.00;99.90;;;;;;5010743;28;20282;-59
2022/02/20 07:35:55;;;;;;;3.53;1.77;;;4.00;99.90;;;;;;5017216;28;20239;-60
2022/02/20 07:38:21;;;;;;;1.90;1.30;;;4.00;99.90;;;;;;5009028;28;20271;-58
2022/02/20 07:40:46;;;;;;;1.43;1.33;;;4.00;99.90;;;;;;5008343;28;20505;-58
2022/02/20 07:43:12;;;;;;;2.80;1.90;;;4.10;99.60;;;;;;5003175;28;20585;-58
2022/02/20 07:45:38;;;;;;;2.30;1.57;;;4.10;99.30;;;;;;5007966;28;20651;-62
2022/02/20 07:48:04;;;;;;;5.37;1.50;;;4.20;99.30;;;;;;5007239;28;20229;-55
2022/02/20 07:50:32;;;;;;;3.50;1.57;;;4.20;99.10;;;;;;5004224;28;20184;-57
2022/02/20 07:52:58;;;;;;;2.97;1.93;;;4.20;99.30;;;;;;5008677;28;20435;-57
2022/02/20 07:55:27;;;;;;;2.60;1.60;;;4.20;99.60;;;;;;5011549;28;20490;-58
2022/02/20 07:57:53;;;;;;;3.30;1.20;;;4.20;99.70;;;;;;5005596;28;20448;-58
2022/02/20 08:00:20;;;;;;;4.67;1.47;;;4.30;99.90;;;;;;5009457;28;20435;-56
2022/02/20 08:02:46;;;;;;;7.20;3.67;;;4.40;99.70;;;;;;5008065;28;20172;-57
2022/02/20 08:05:12;;;;;;;10.53;1.97;;;4.40;99.70;;;;;;5006088;28;20507;-57
2022/02/20 08:07:38;;;;;;;1.53;1.20;;;4.50;99.30;;;;;;5004301;28;20486;-58
2022/02/20 08:10:05;;;;;;;3.83;1.60;;;4.50;99.00;;;;;;5009300;28;20431;-57
2022/02/20 08:12:31;;;;;;;5.30;1.43;;;4.60;98.80;;;;;;5006660;28;20585;-56
2022/02/20 08:14:57;;;;;;;3.00;1.30;;;4.60;98.60;;;;;;4999107;28;21035;-57
2022/02/20 08:17:23;;;;;;;2.40;1.33;;;4.60;98.70;;;;;;5002060;28;20461;-58
2022/02/20 08:19:49;;;;;;;2.10;1.40;;;4.60;98.80;;;;;;5003276;28;20205;-57
2022/02/20 08:22:14;;;;;;;1.77;1.60;;;4.70;99.00;;;;;;5004282;28;20183;-58
2022/02/20 08:24:40;;;;;;;6.43;2.00;;;4.70;98.60;;;;;;5002967;28;20354;-57
2022/02/20 08:27:06;;;;;;;2.00;1.17;;;4.80;98.00;;;;;;5009418;28;20455;-58
2022/02/20 08:29:32;;;;;;;2.00;1.30;;;4.80;97.50;;;;;;5006983;28;20169;-58
2022/02/20 08:31:57;;;;;;;3.47;1.77;;;4.80;97.20;;;;;;5016002;28;20263;-58
2022/02/20 08:34:23;;;;;;;2.50;1.70;;;4.80;96.80;;;;;;5015397;28;20449;-59
2022/02/20 08:36:49;;;;;;;2.30;1.60;;;4.80;97.30;;;;;;5009342;28;20187;-58
2022/02/20 08:39:15;;;;;;;1.57;1.47;;;4.90;96.90;;;;;;5006387;28;20487;-57
2022/02/20 08:41:40;;;;;;;3.20;1.70;;;5.00;96.40;;;;;;5006337;28;20185;-57
2022/02/20 08:44:06;;;;;;;1.80;1.40;;;5.10;95.70;;;;;;5003314;28;20595;-57
2022/02/20 08:46:32;;;;;;;2.30;1.50;;;5.20;94.10;;;;;;5008950;28;20308;-58
2022/02/20 08:48:58;;;;;;;1.93;1.60;;;5.30;93.60;;;;;;5009050;28;20180;-56
2022/02/20 08:51:24;;;;;;;4.23;1.60;;;5.40;92.90;;;;;;5007941;28;20272;-58
2022/02/20 08:53:49;;;;;;;2.50;1.53;;;5.40;91.80;;;;;;5004661;28;20463;-58
2022/02/20 08:56:15;;;;;;;1.20;1.10;;;5.40;90.20;;;;;;5007441;28;20207;-58
2022/02/20 08:58:41;;;;;;;2.07;1.07;;;5.50;89.20;;;;;;5019327;28;20262;-56
2022/02/20 09:01:06;;;;;;;1.17;1.07;;;5.50;88.40;;;;;;5015443;28;20590;-57
2022/02/20 09:03:33;;;;;;;2.60;1.33;;;5.50;89.50;;;;;;5003193;28;20207;-57
2022/02/20 09:05:59;;;;;;;1.40;1.30;;;5.60;90.10;;;;;;5011603;28;20207;-57
2022/02/20 09:08:25;;;;;;;1.47;1.37;;;5.60;87.50;;;;;;5006337;28;20435;-57
2022/02/20 09:10:51;;;;;;;0.90;0.90;;;5.70;86.10;;;;;;5002023;28;20177;-58
2022/02/20 09:13:17;;;;;;;2.70;1.50;;;5.80;83.60;;;;;;4999284;28;20457;-56
2022/02/20 09:15:43;;;;;;;1.30;1.20;;;5.90;84.60;;;;;;4994987;28;20288;-59
2022/02/20 09:18:09;;;;;;;1.47;1.30;;;6.10;83.50;;;;;;4994427;28;20439;-59
2022/02/20 09:20:35;;;;;;;2.90;1.50;;;6.20;79.20;;;;;;5002220;28;20431;-55
2022/02/20 09:23:01;;;;;;;2.73;1.50;;;6.30;77.90;;;;;;5007066;28;20652;-58
2022/02/20 09:25:27;;;;;;;2.03;1.40;;;6.40;76.60;;;;;;5001320;28;20225;-59
2022/02/20 09:27:52;;;;;;;1.47;1.23;;;6.50;75.80;;;;;;5001126;28;20318;-58
2022/02/20 09:30:18;;;;;;;2.63;1.17;;;6.50;75.70;;;;;;5008196;28;20191;-54
2022/02/20 09:32:45;;;;;;;4.20;1.30;;;6.60;75.00;;;;;;5007295;28;20791;-58
2022/02/20 09:35:11;;;;;;;1.53;1.43;;;6.70;74.50;;;;;;4995226;28;21003;-56
2022/02/20 09:37:37;;;;;;;2.83;1.23;;;6.80;74.30;;;;;;4991577;28;20597;-58
2022/02/20 09:40:04;;;;;;;2.37;1.50;;;6.80;73.20;;;;;;4998938;28;20555;-59
2022/02/20 09:42:29;;;;;;;1.60;1.50;;;6.90;73.30;;;;;;4999813;28;20603;-57
2022/02/20 09:44:55;;;;;;;2.70;1.30;;;6.90;72.60;;;;;;4999265;28;20470;-58
2022/02/20 09:47:27;;;;;;;2.43;1.30;;;7.00;71.70;;;;;;4998273;28;20199;-59
2022/02/20 09:49:58;;;;;;;1.50;1.40;;;7.00;71.40;;;;;;4998584;28;20183;-59
2022/02/20 09:52:24;;;;;;;1.87;1.00;;;7.20;72.30;;;;;;4999511;28;20440;-59
2022/02/20 09:54:49;;;;;;;1.60;1.10;;;7.30;71.70;;;;;;4996074;28;20459;-59
2022/02/20 09:57:15;;;;;;;1.70;1.17;;;7.30;70.00;;;;;;4999610;28;20366;-57
2022/02/20 09:59:40;;;;;;;1.20;1.10;;;7.30;69.40;;;;;;4995662;28;20184;-58
2022/02/20 10:02:09;;;;;;;1.13;1.03;;;7.20;69.70;;;;;;5002120;28;20189;-56
2022/02/20 10:04:49;;;;;;;1.80;1.37;;;7.10;70.30;;;;;;5001974;28;20200;-56
2022/02/20 10:07:27;;;;;;;3.00;1.50;;;6.90;70.90;;;;;;5004858;28;20470;-58
2022/02/20 10:09:54;;;;;;;1.27;1.03;;;6.80;71.40;;;;;;5016814;28;20766;-58
2022/02/20 10:12:21;;;;;;;2.13;1.10;;;6.70;72.70;;;;;;5004074;28;20472;-58
2022/02/20 10:14:48;;;;;;;1.80;1.30;;;6.60;73.30;;;;;;4999010;28;22499;-56
2022/02/20 10:17:16;;;;;;;1.57;1.30;;;6.50;74.60;;;;;;4999563;28;20886;-57
2022/02/20 10:19:59;;;;;;;1.10;1.10;;;6.50;75.30;;;;;;4998082;28;20442;-53
2022/02/20 10:22:38;;;;;;;1.33;1.10;;;6.40;75.80;;;;;;5000893;28;20747;-53
2022/02/20 10:25:09;;;;;;;1.97;1.30;;;6.40;76.50;;;;;;5013143;28;20497;-59
2022/02/20 10:27:42;;;;;;;2.30;1.50;;;6.40;77.80;;;;;;5004364;28;20466;-56
2022/02/20 10:30:19;;;;;;;1.30;1.20;;;6.40;77.70;;;;;;4999800;28;20497;-56
2022/02/20 10:32:47;;;;;;;1.40;1.30;;;6.40;78.70;;;;;;4999476;28;21102;-59
2022/02/20 10:35:13;;;;;;;1.53;1.43;;;6.50;79.00;;;;;;5008353;28;20458;-58
2022/02/20 10:37:40;;;;;;;1.70;1.20;;;6.50;78.60;;;;;;5001609;28;20509;-58
2022/02/20 10:40:24;;;;;;;4.20;1.50;;;6.60;78.40;;;;;;5002632;28;20881;-57
2022/02/20 10:42:52;;;;;;;5.80;1.47;;;6.70;77.50;;;;;;5002973;28;20426;-57
2022/02/20 10:45:34;;;;;;;2.57;1.60;;;6.80;76.50;;;;;;5002962;28;20932;-57
2022/02/20 10:48:01;;;;;;;0.90;0.90;;;6.90;76.60;;;;;;5001948;28;20944;-57
2022/02/20 10:50:30;;;;;;;1.30;1.13;;;7.00;74.20;;;;;;5001764;28;20485;-55
2022/02/20 10:53:07;;;;;;;2.60;1.20;;;7.10;75.10;;;;;;5005365;28;20422;-58
2022/02/20 10:55:37;;;;;;;2.40;1.40;;;7.20;73.90;;;;;;5010492;28;21064;-58
2022/02/20 10:58:27;;;;;;;2.37;1.70;;;7.40;72.80;;;;;;5001523;28;20440;-56
2022/02/20 11:00:58;;;;;;;1.30;1.20;;;7.50;71.30;;;;;;4993543;28;20439;-59
2022/02/20 11:03:28;;;;;;;2.03;1.40;;;7.50;70.60;;;;;;5001357;28;20935;-58
2022/02/20 11:05:55;;;;;;;1.80;1.70;;;7.40;70.20;;;;;;5000456;28;20814;-59
2022/02/20 11:08:24;;;;;;;2.00;1.23;;;7.30;70.30;;;;;;5005535;28;20465;-59
2022/02/20 11:10:50;;;;;;;2.70;1.70;;;7.40;71.20;;;;;;4997687;28;20435;-58
2022/02/20 11:13:18;;;;;;;2.27;1.43;;;7.40;71.50;;;;;;4993796;28;20465;-57
2022/02/20 11:15:46;;;;;;;1.40;1.20;;;7.60;71.20;;;;;;4996675;28;20464;-57
2022/02/20 11:18:16;;;;;;;2.73;1.77;;;7.80;71.20;;;;;;4996238;28;20447;-55
2022/02/20 11:20:48;;;;;;;2.60;1.20;;;8.00;70.00;;;;;;4994830;28;20496;-57
2022/02/20 11:23:27;;;;;;;2.13;1.53;;;8.20;67.30;;;;;;5001388;28;20211;-56
2022/02/20 11:25:54;;;;;;;2.97;1.30;;;8.00;66.80;;;;;;4996819;28;20517;-57
2022/02/20 11:28:20;;;;;;;1.60;1.43;;;8.00;67.30;;;;;;4994320;28;21287;-56
2022/02/20 11:30:46;;;;;;;1.07;1.00;;;7.90;67.00;;;;;;5005303;28;20455;-59
2022/02/20 11:33:13;;;;;;;1.10;1.10;;;7.90;67.50;;;;;;4992432;28;20557;-57
2022/02/20 11:35:42;;;;;;;1.80;1.60;;;8.00;67.60;;;;;;5001237;28;20276;-56
2022/02/20 11:38:13;;;;;;;2.43;1.60;;;8.10;67.20;;;;;;4999235;28;20447;-56
2022/02/20 11:40:58;;;;;;;1.87;1.77;;;8.30;67.10;;;;;;4995845;28;20963;-58
2022/02/20 11:43:45;;;;;;;1.60;1.50;;;8.50;66.70;;;;;;4995779;28;20926;-57
2022/02/20 11:46:22;;;;;;;1.40;1.30;;;8.60;65.80;;;;;;4997490;28;20477;-57
2022/02/20 11:49:19;;;;;;;1.90;1.23;;;8.80;65.00;;;;;;4999610;28;20450;-57
2022/02/20 11:52:11;;;;;;;3.33;1.10;;;8.90;63.80;;;;;;4994285;28;20442;-57
2022/02/20 11:54:38;;;;;;;1.60;1.30;;;8.90;63.70;;;;;;5002375;28;20463;-57
2022/02/20 11:57:13;;;;;;;1.10;1.10;;;8.90;63.40;;;;;;5003115;28;20435;-59
2022/02/20 11:59:40;;;;;;;0.97;0.97;;;9.00;63.70;;;;;;4998618;28;20508;-56
2022/02/20 12:02:13;;;;;;;1.23;1.20;;;9.30;63.40;;;;;;5003543;28;20454;-57
2022/02/20 12:04:51;;;;;;;7.20;1.77;;;9.50;61.80;;;;;;4992222;28;20467;-56
2022/02/20 12:07:31;;;;;;;2.17;1.17;;;9.50;60.90;;;;;;4992201;28;20514;-56
2022/02/20 12:10:23;;;;;;;0.97;0.90;;;9.50;60.50;;;;;;4995679;28;20530;-58
2022/02/20 12:13:06;;;;;;;1.37;1.20;;;9.40;59.90;;;;;;5006637;28;20446;-59
2022/02/20 12:15:40;;;;;;;1.63;1.00;;;9.30;60.20;;;;;;4989887;28;20459;-57
2022/02/20 12:18:12;;;;;;;1.87;1.27;;;9.20;60.20;;;;;;4988639;28;20435;-58
2022/02/20 12:20:53;;;;;;;1.33;1.10;;;9.10;60.60;;;;;;5001075;28;20521;-57
2022/02/20 12:23:29;;;;;;;1.20;1.10;;;8.90;61.00;;;;;;4996962;28;20960;-58
2022/02/20 12:25:56;;;;;;;1.00;0.87;;;8.90;61.70;;;;;;4996003;28;20470;-57
2022/02/20 12:28:35;;;;;;;1.43;1.33;;;9.00;61.70;;;;;;4990539;28;20535;-59
2022/02/20 12:31:31;;;;;;;2.00;0.80;;;9.00;61.40;;;;;;4988866;28;20470;-59
2022/02/20 12:33:57;;;;;;;0.70;0.70;;;9.10;61.80;;;;;;4987349;28;20816;-58
2022/02/20 12:36:28;;;;;;;1.03;0.93;;;9.10;61.60;;;;;;4996601;28;20498;-58
2022/02/20 12:39:00;;;;;;;1.17;0.90;;;9.00;61.20;;;;;;4993523;28;20195;-60
2022/02/20 12:41:27;;;;;;;2.37;1.00;;;8.90;62.00;;;;;;4996507;28;20446;-59
2022/02/20 12:43:55;;;;;;;1.00;0.90;;;8.80;62.60;;;;;;4997296;28;20816;-58
2022/02/20 12:46:23;;;;;;;1.33;1.10;;;8.80;62.90;;;;;;4991179;28;21248;-57
2022/02/20 12:48:50;;;;;;;1.40;1.20;;;8.70;63.30;;;;;;4997884;28;20950;-58
2022/02/20 12:51:16;;;;;;;0.80;0.80;;;8.60;64.50;;;;;;5003439;28;21248;-57
2022/02/20 12:53:44;;;;;;;1.20;1.10;;;8.60;63.80;;;;;;4998959;28;20436;-59
2022/02/20 12:56:10;;;;;;;3.70;1.33;;;8.60;64.20;;;;;;4993690;28;20455;-59
2022/02/20 12:58:49;;;;;;;2.80;2.27;;;8.50;64.50;;;;;;4995739;28;20436;-58